Latest Coastal Weather Observations for Noarlunga

IDS60701

Issued at 8:25 pm CDT Friday 28 November 2014 (issued every 10 minutes, with the page automatically refreshed every 10 minutes)

About coastal observations | Map of coastal stations | Coastal observations for SA | Marine services | Other Formats
Station Details ID: 023885 Name: NOARLUNGA Lat: -35.16 Lon: 138.51 Height: 55.0 m
Data from the previous 72 hours. | See also: Recent months at Noarlunga
Date/Time
CDT
Temp

°C
Wind Pressure Rain
since 9am
mm
Weather Cloud Vis
km
Sea
Height
m
Swell
Dir
 
Speed
knots
Gust
knots
hPa Trend Height
m
Period
s
Dir
28/08:00pm 23.1 ESE 8 12 - - 0.0 - - - - - - -
28/07:30pm 24.1 SE 4 6 - - 0.0 - - - - - - -
28/07:00pm 23.7 W 2 5 - - 0.0 - - - - - - -
28/06:30pm 23.9 SW 4 7 - - 0.0 - - - - - - -
28/06:00pm 24.4 SW 7 11 - - 0.0 - - - - - - -
28/05:30pm 26.5 SW 7 9 - - 0.0 - - - - - - -
28/05:00pm 27.9 WSW 7 10 - - 0.0 - - - - - - -
28/04:30pm 27.6 SW 6 10 - - 0.0 - - - - - - -
28/04:00pm 27.2 WSW 6 8 - - 0.0 - - - - - - -
28/03:30pm 27.5 SW 6 10 - - 0.0 - - - - - - -
28/03:00pm 26.9 WSW 8 13 - - 0.0 - - - - - - -
28/02:30pm 26.1 WSW 8 12 - - 0.0 - - - - - - -
28/02:00pm 27.5 WSW 8 10 - - 0.0 - - - - - - -
28/01:30pm 26.7 W 7 10 - - 0.0 - - - - - - -
28/01:00pm 26.7 WNW 7 9 - - 0.0 - - - - - - -
28/12:30pm 26.8 WNW 5 7 - - 0.0 - - - - - - -
28/12:00pm 25.4 WNW 7 9 - - 0.0 - - - - - - -
28/11:30am 25.8 WNW 7 9 - - 0.0 - - - - - - -
28/11:00am 26.9 E 4 8 - - 0.0 - - - - - - -
28/10:30am 25.9 E 6 9 - - 0.0 - - - - - - -
28/10:00am 24.6 E 7 12 - - 0.0 - - - - - - -
28/09:30am 22.5 ESE 7 11 - - 0.0 - - - - - - -
28/09:00am 20.8 ESE 10 16 - - 0.0 - - - - - - -
28/08:30am 19.1 ESE 11 18 - - 0.0 - - - - - - -
28/08:00am 17.8 ESE 12 18 - - 0.0 - - - - - - -
28/07:30am 16.5 ESE 13 18 - - 0.0 - - - - - - -
28/07:00am 15.5 ESE 14 20 - - 0.0 - - - - - - -
28/06:30am 14.6 E 12 17 - - 0.0 - - - - - - -
28/06:00am 14.2 E 14 21 - - 0.0 - - - - - - -
28/05:30am 13.9 E 13 19 - - 0.0 - - - - - - -
28/05:00am 13.6 E 12 17 - - 0.0 - - - - - - -
28/04:30am 13.3 E 12 18 - - 0.0 - - - - - - -
28/04:00am 13.0 E 11 16 - - 0.0 - - - - - - -
28/03:30am 13.3 E 9 14 - - 0.0 - - - - - - -
28/03:00am 13.2 E 7 13 - - 0.0 - - - - - - -
28/02:30am 13.4 E 10 17 - - 0.0 - - - - - - -
28/02:00am 13.3 E 8 12 - - 0.0 - - - - - - -
28/01:30am 13.4 E 4 8 - - 0.0 - - - - - - -
28/01:00am 13.4 ENE 4 9 - - 0.0 - - - - - - -
28/12:30am 13.4 E 7 12 - - 0.0 - - - - - - -
28/12:00am 13.5 ESE 8 13 - - 0.0 - - - - - - -
 
Date/Time
CDT
Temp

°C
Wind Pressure Rain
since 9am
mm
Weather Cloud Vis
km
Sea
Height
m
Swell
Dir
 
Speed
knots
Gust
knots
hPa Trend Height
m
Period
s
Dir
27/11:30pm 13.6 ESE 7 11 - - 0.0 - - - - - - -
27/11:00pm 13.8 ESE 6 9 - - 0.0 - - - - - - -
27/10:30pm 14.1 E 3 6 - - 0.0 - - - - - - -
27/10:00pm 14.6 ESE 6 11 - - 0.0 - - - - - - -
27/09:30pm 15.0 SE 9 14 - - 0.0 - - - - - - -
27/09:00pm 15.3 SE 10 15 - - 0.0 - - - - - - -
27/08:30pm 15.9 SE 8 12 - - 0.0 - - - - - - -
27/08:00pm 17.1 SE 11 15 - - 0.0 - - - - - - -
27/07:30pm 18.6 SE 9 13 - - 0.0 - - - - - - -
27/07:00pm 19.9 SE 12 17 - - 0.0 - - - - - - -
27/06:30pm 20.8 SE 13 17 - - 0.0 - - - - - - -
27/06:00pm 21.4 SSE 15 20 - - 0.0 - - - - - - -
27/05:30pm 23.1 SSE 13 18 - - 0.0 - - - - - - -
27/05:00pm 23.7 SE 14 19 - - 0.0 - - - - - - -
27/04:30pm 24.1 SSE 15 19 - - 0.0 - - - - - - -
27/04:00pm 25.4 SSE 12 19 - - 0.0 - - - - - - -
27/03:30pm 25.2 SSE 12 15 - - 0.0 - - - - - - -
27/03:00pm 26.3 SSE 11 16 - - 0.0 - - - - - - -
27/02:30pm 26.5 SSE 9 15 - - 0.0 - - - - - - -
27/02:00pm 26.3 SSE 8 14 - - 0.0 - - - - - - -
27/01:30pm 25.6 SSE 8 13 - - 0.0 - - - - - - -
27/01:00pm 25.0 ESE 7 12 - - 0.0 - - - - - - -
27/12:30pm 24.4 E 7 11 - - 0.0 - - - - - - -
27/12:00pm 23.1 E 7 11 - - 0.0 - - - - - - -
27/11:30am 22.6 ESE 8 14 - - 0.0 - - - - - - -
27/11:00am 22.3 E 7 13 - - 0.0 - - - - - - -
27/10:30am 20.7 E 10 15 - - 0.0 - - - - - - -
27/10:00am 19.5 ESE 11 16 - - 0.0 - - - - - - -
27/09:30am 18.5 ESE 14 19 - - 0.0 - - - - - - -
27/09:00am 18.3 E 13 21 - - 0.0 - - - - - - -
27/08:30am 16.5 ESE 16 22 - - 0.0 - - - - - - -
27/08:00am 15.9 ESE 14 20 - - 0.0 - - - - - - -
27/07:30am 15.1 ESE 14 20 - - 0.0 - - - - - - -
27/07:00am 14.3 ESE 14 23 - - 0.0 - - - - - - -
27/06:30am 13.8 ESE 11 17 - - 0.0 - - - - - - -
27/06:00am 13.4 ESE 9 14 - - 0.0 - - - - - - -
27/05:30am 13.5 E 7 12 - - 0.0 - - - - - - -
27/05:00am 13.7 E 6 11 - - 0.0 - - - - - - -
27/04:30am 14.0 ESE 10 18 - - 0.0 - - - - - - -
27/04:00am 14.3 ESE 11 19 - - 0.0 - - - - - - -
27/03:30am 14.7 SE 9 14 - - 0.0 - - - - - - -
27/03:00am 15.0 SE 12 19 - - 0.0 - - - - - - -
27/02:30am 15.2 SE 10 15 - - 0.0 - - - - - - -
27/02:00am 15.3 SE 9 13 - - 0.0 - - - - - - -
27/01:30am 15.0 SE 10 15 - - 0.0 - - - - - - -
27/01:00am 14.9 SE 9 13 - - 0.0 - - - - - - -
27/12:30am 15.0 SE 7 12 - - 0.0 - - - - - - -
27/12:00am 15.1 SE 10 14 - - 0.0 - - - - - - -
 
Date/Time
CDT
Temp

°C
Wind Pressure Rain
since 9am
mm
Weather Cloud Vis
km
Sea
Height
m
Swell
Dir
 
Speed
knots
Gust
knots
hPa Trend Height
m
Period
s
Dir
26/11:30pm 15.3 SE 12 16 - - 0.0 - - - - - - -
26/11:00pm 15.7 SE 9 16 - - 0.0 - - - - - - -
26/10:30pm 15.4 SSE 10 16 - - 0.0 - - - - - - -
26/10:00pm 15.6 SE 11 19 - - 0.0 - - - - - - -
26/09:30pm 15.6 SSE 12 18 - - 0.0 - - - - - - -
26/09:00pm 15.8 SSE 12 17 - - 0.0 - - - - - - -
26/08:30pm 15.7 SSE 9 18 - - 0.0 - - - - - - -
26/08:00pm 16.1 SSE 12 21 - - 0.0 - - - - - - -
26/07:30pm 16.8 SSE 14 20 - - 0.0 - - - - - - -
26/07:00pm 18.0 SE 11 16 - - 0.0 - - - - - - -
26/06:30pm 18.3 SSE 15 20 - - 0.0 - - - - - - -
26/06:00pm 19.1 SSE 13 18 - - 0.0 - - - - - - -
26/05:30pm 20.1 SSE 13 18 - - 0.0 - - - - - - -
26/05:00pm 20.3 SSE 14 20 - - 0.0 - - - - - - -
26/04:30pm 21.1 SSE 13 18 - - 0.0 - - - - - - -
26/04:00pm 22.0 SSE 13 18 - - 0.0 - - - - - - -
26/03:30pm 22.0 SSE 14 20 - - 0.0 - - - - - - -
26/03:00pm 23.0 SSE 11 18 - - 0.0 - - - - - - -
26/02:30pm 23.6 SSE 10 15 - - 0.0 - - - - - - -
26/02:00pm 21.1 SW 13 18 - - 0.0 - - - - - - -
26/01:30pm 20.3 SW 12 19 - - 0.0 - - - - - - -
26/01:00pm 20.1 SW 11 17 - - 0.0 - - - - - - -
26/12:30pm 19.7 WSW 12 16 - - 0.0 - - - - - - -
26/12:00pm 19.9 W 10 15 - - 0.0 - - - - - - -
26/11:30am 19.6 SW 7 13 - - 0.0 - - - - - - -
26/11:00am 20.5 SSW 4 7 - - 0.0 - - - - - - -
26/10:30am 19.5 S 4 8 - - 0.0 - - - - - - -
26/10:00am 19.1 SE 6 11 - - 0.0 - - - - - - -
26/09:30am 18.4 SSE 5 8 - - 0.0 - - - - - - -
26/09:00am 17.7 SSE 6 12 - - 0.0 - - - - - - -
26/08:30am 16.8 SE 7 10 - - 0.0 - - - - - - -
26/08:00am 15.9 SE 4 6 - - 0.0 - - - - - - -
26/07:30am 14.2 ESE 6 7 - - 0.0 - - - - - - -
26/07:00am 12.7 ESE 4 6 - - 0.0 - - - - - - -
26/06:30am 11.1 E 5 6 - - 0.0 - - - - - - -
26/06:00am 10.3 ESE 5 6 - - 0.0 - - - - - - -
26/05:30am 10.4 E 4 6 - - 0.0 - - - - - - -
26/05:00am 10.2 ESE 4 6 - - 0.0 - - - - - - -
26/04:30am 10.8 E 6 7 - - 0.0 - - - - - - -
26/04:00am 10.7 E 6 8 - - 0.0 - - - - - - -
26/03:30am 11.2 E 6 9 - - 0.0 - - - - - - -
26/03:00am 11.4 E 7 8 - - 0.0 - - - - - - -
26/02:30am 11.5 E 5 7 - - 0.0 - - - - - - -
26/02:00am 11.6 E 6 8 - - 0.0 - - - - - - -
26/01:30am 11.9 ESE 6 7 - - 0.0 - - - - - - -
26/01:00am 11.9 ESE 5 7 - - 0.0 - - - - - - -
26/12:30am 12.3 ESE 6 7 - - 0.0 - - - - - - -
26/12:00am 12.4 SE 4 6 - - 0.0 - - - - - - -
 
Date/Time
CDT
Temp

°C
Wind Pressure Rain
since 9am
mm
Weather Cloud Vis
km
Sea
Height
m
Swell
Dir
 
Speed
knots
Gust
knots
hPa Trend Height
m
Period
s
Dir
25/11:30pm 12.7 SE 4 6 - - 0.0 - - - - - - -
25/11:00pm 13.1 SE 5 8 - - 0.0 - - - - - - -
25/10:30pm 13.5 SE 5 8 - - 0.0 - - - - - - -
25/10:00pm 13.9 SE 6 8 - - 0.0 - - - - - - -
25/09:30pm 14.2 SE 7 9 - - 0.0 - - - - - - -
25/09:00pm 14.7 SE 8 10 - - 0.0 - - - - - - -
25/08:30pm 15.2 SSE 8 11 - - 0.0 - - - - - - -

Other Formats:

Comma delimited format used in spreadsheet applications
http://www.bom.gov.au/fwo/IDS60701/IDS60701.94808.axf

JavaScript Object Notation format (JSON) in row-major order
http://www.bom.gov.au/fwo/IDS60701/IDS60701.94808.json